Time;durP1;ratioP1;P1;durP2;ratioP2;P2;SDS_P1;SDS_P2;PMS_P1;PMS_P2;Temp;Humidity;BMP_temperature;BMP_pressure;BME280_temperature;BME280_humidity;BME280_pressure;Samples;Min_cycle;Max_cycle;Signal;HPM_P1;HPM_P2
2024/01/20 00:00:56;;;;;;;;;;;1.50;100.00;;;;;;5005898;28;19955;-65
2024/01/20 00:03:22;;;;;;;;;;;1.50;100.00;;;;;;5006479;28;20386;-64
2024/01/20 00:05:49;;;;;;;;;;;1.50;100.00;;;;;;5006287;28;19936;-65
2024/01/20 00:08:16;;;;;;;;;;;1.50;100.00;;;;;;5021657;28;19980;-65
2024/01/20 00:10:43;;;;;;;;;;;1.50;100.00;;;;;;5006531;28;19930;-65
2024/01/20 00:13:10;;;;;;;;;;;1.50;100.00;;;;;;5006752;28;19936;-65
2024/01/20 00:15:39;;;;;;;;;;;1.50;100.00;;;;;;5004725;28;19932;-64
2024/01/20 00:18:06;;;;;;;;;;;1.50;100.00;;;;;;5002897;28;19939;-65
2024/01/20 00:20:33;;;;;;;;;;;1.50;100.00;;;;;;5022132;28;19929;-65
2024/01/20 00:23:00;;;;;;;;;;;1.50;100.00;;;;;;5005512;28;20381;-65
2024/01/20 00:25:27;;;;;;;;;;;1.50;100.00;;;;;;5005558;28;19929;-65
2024/01/20 00:27:54;;;;;;;;;;;1.50;100.00;;;;;;5006507;28;19929;-64
2024/01/20 00:30:21;;;;;;;;;;;1.50;100.00;;;;;;5017839;28;19995;-65
2024/01/20 00:32:48;;;;;;;;;;;1.50;100.00;;;;;;5005810;28;20513;-65
2024/01/20 00:35:15;;;;;;;;;;;1.50;100.00;;;;;;5020593;28;19929;-65
2024/01/20 00:37:42;;;;;;;;;;;1.50;100.00;;;;;;5005647;28;19944;-65
2024/01/20 00:40:09;;;;;;;;;;;1.50;100.00;;;;;;5005363;28;19930;-65
2024/01/20 00:42:36;;;;;;;;;;;1.50;100.00;;;;;;5006356;28;19980;-65
2024/01/20 00:45:04;;;;;;;;;;;1.50;100.00;;;;;;5005341;28;19969;-65
2024/01/20 00:47:30;;;;;;;;;;;1.60;100.00;;;;;;5004112;28;19979;-65
2024/01/20 00:49:57;;;;;;;;;;;1.50;100.00;;;;;;5005060;28;19975;-65
2024/01/20 00:52:24;;;;;;;;;;;1.50;100.00;;;;;;4991505;28;20441;-65
2024/01/20 00:54:51;;;;;;;;;;;1.50;100.00;;;;;;5004403;28;19945;-65
2024/01/20 00:57:18;;;;;;;;;;;1.50;100.00;;;;;;5005028;28;20649;-65
2024/01/20 00:59:45;;;;;;;;;;;1.50;100.00;;;;;;5004759;28;19984;-65
2024/01/20 01:02:13;;;;;;;;;;;1.50;100.00;;;;;;5003912;28;19933;-65
2024/01/20 01:04:40;;;;;;;;;;;1.50;100.00;;;;;;5004253;28;19929;-65
2024/01/20 01:07:07;;;;;;;;;;;1.50;100.00;;;;;;5004642;28;19936;-65
2024/01/20 01:09:35;;;;;;;;;;;1.50;100.00;;;;;;5005421;28;19933;-65
2024/01/20 01:12:02;;;;;;;;;;;1.50;100.00;;;;;;5004954;28;19929;-65
2024/01/20 01:14:29;;;;;;;;;;;1.50;100.00;;;;;;5002678;28;19933;-65
2024/01/20 01:16:55;;;;;;;;;;;1.50;100.00;;;;;;5004116;28;20719;-65
2024/01/20 01:19:23;;;;;;;;;;;1.60;100.00;;;;;;5003285;28;20918;-65
2024/01/20 01:21:49;;;;;;;;;;;1.60;100.00;;;;;;5005808;28;19933;-65
2024/01/20 01:24:16;;;;;;;;;;;1.60;100.00;;;;;;4998185;28;21196;-65
2024/01/20 01:26:43;;;;;;;;;;;1.60;100.00;;;;;;5000448;28;20438;-65
2024/01/20 01:29:10;;;;;;;;;;;1.60;100.00;;;;;;5002324;28;19937;-65
2024/01/20 01:31:37;;;;;;;;;;;1.60;100.00;;;;;;5005402;28;19929;-65
2024/01/20 01:34:03;;;;;;;;;;;1.60;100.00;;;;;;5004184;28;19933;-65
2024/01/20 01:36:30;;;;;;;;;;;1.60;100.00;;;;;;5002313;28;19929;-65
2024/01/20 01:38:57;;;;;;;;;;;1.60;100.00;;;;;;5004553;28;19976;-65
2024/01/20 01:41:24;;;;;;;;;;;1.70;100.00;;;;;;4998105;28;19929;-65
2024/01/20 01:43:51;;;;;;;;;;;1.60;100.00;;;;;;5002337;28;19948;-65
2024/01/20 01:46:17;;;;;;;;;;;1.60;100.00;;;;;;5003810;28;19937;-65
2024/01/20 01:48:44;;;;;;;;;;;1.60;100.00;;;;;;5003151;28;19933;-65
2024/01/20 01:51:12;;;;;;;;;;;1.70;100.00;;;;;;5003086;28;20345;-65
2024/01/20 01:53:39;;;;;;;;;;;1.70;100.00;;;;;;4986374;28;19980;-65
2024/01/20 01:56:07;;;;;;;;;;;1.70;100.00;;;;;;5003358;28;20028;-65
2024/01/20 01:58:34;;;;;;;;;;;1.60;100.00;;;;;;5004669;28;19934;-65
2024/01/20 02:01:00;;;;;;;;;;;1.60;100.00;;;;;;5002283;28;19968;-65
2024/01/20 02:03:27;;;;;;;;;;;1.70;100.00;;;;;;5004190;28;19937;-65
2024/01/20 02:05:54;;;;;;;;;;;1.70;100.00;;;;;;5000728;28;19937;-65
2024/01/20 02:08:23;;;;;;;;;;;1.70;100.00;;;;;;5003391;28;19930;-65
2024/01/20 02:10:50;;;;;;;;;;;1.70;100.00;;;;;;5003291;28;20084;-65
2024/01/20 02:13:17;;;;;;;;;;;1.70;100.00;;;;;;5003603;28;20437;-65
2024/01/20 02:15:44;;;;;;;;;;;1.70;100.00;;;;;;5001799;28;20036;-65
2024/01/20 02:18:11;;;;;;;;;;;1.70;100.00;;;;;;5004273;28;20706;-65
2024/01/20 02:20:38;;;;;;;;;;;1.70;100.00;;;;;;5002955;28;20013;-69
2024/01/20 02:23:05;;;;;;;;;;;1.70;100.00;;;;;;5003092;28;19929;-69
2024/01/20 02:25:31;;;;;;;;;;;1.70;100.00;;;;;;5002121;28;20015;-69
2024/01/20 02:27:58;;;;;;;;;;;1.80;100.00;;;;;;5002835;28;19934;-69
2024/01/20 02:30:25;;;;;;;;;;;1.80;100.00;;;;;;4997365;28;20648;-69
2024/01/20 02:32:52;;;;;;;;;;;1.80;100.00;;;;;;5003959;28;19930;-71
2024/01/20 02:35:19;;;;;;;;;;;1.80;100.00;;;;;;5002962;28;19961;-69
2024/01/20 02:37:46;;;;;;;;;;;1.80;100.00;;;;;;5004187;28;19933;-69
2024/01/20 02:40:13;;;;;;;;;;;1.80;100.00;;;;;;5018561;28;19925;-69
2024/01/20 02:42:40;;;;;;;;;;;1.90;100.00;;;;;;5003773;28;19938;-70
2024/01/20 02:45:07;;;;;;;;;;;1.90;100.00;;;;;;5003661;28;20413;-69
2024/01/20 02:47:34;;;;;;;;;;;1.80;100.00;;;;;;5019706;28;20290;-69
2024/01/20 02:50:00;;;;;;;;;;;1.80;100.00;;;;;;5003586;28;19988;-70
2024/01/20 02:52:27;;;;;;;;;;;1.80;100.00;;;;;;5005233;28;19961;-65
2024/01/20 02:54:54;;;;;;;;;;;1.80;100.00;;;;;;5003382;28;19929;-65
2024/01/20 02:57:21;;;;;;;;;;;1.80;100.00;;;;;;5003235;28;19930;-65
2024/01/20 02:59:48;;;;;;;;;;;1.80;100.00;;;;;;5003115;28;19933;-65
2024/01/20 03:02:15;;;;;;;;;;;1.80;100.00;;;;;;5002038;28;19933;-65
2024/01/20 03:04:41;;;;;;;;;;;1.80;100.00;;;;;;5001206;28;19979;-65
2024/01/20 03:07:08;;;;;;;;;;;1.80;100.00;;;;;;5003532;28;19937;-65
2024/01/20 03:09:35;;;;;;;;;;;1.80;100.00;;;;;;5002778;28;19930;-65
2024/01/20 03:12:02;;;;;;;;;;;1.90;100.00;;;;;;5004582;28;19945;-65
2024/01/20 03:14:29;;;;;;;;;;;1.80;100.00;;;;;;5006225;28;20369;-65
2024/01/20 03:16:56;;;;;;;;;;;1.80;100.00;;;;;;5006621;28;19929;-65
2024/01/20 03:19:23;;;;;;;;;;;1.80;100.00;;;;;;5005406;28;20411;-65
2024/01/20 03:21:50;;;;;;;;;;;1.80;100.00;;;;;;5021571;28;20039;-65
2024/01/20 03:24:17;;;;;;;;;;;1.80;100.00;;;;;;5006059;28;20030;-65
2024/01/20 03:26:47;;;;;;;;;;;1.80;100.00;;;;;;5006646;28;20768;-65
2024/01/20 03:29:14;;;;;;;;;;;1.80;100.00;;;;;;5007401;28;19930;-64
2024/01/20 03:31:41;;;;;;;;;;;1.70;100.00;;;;;;5007786;28;19933;-64
2024/01/20 03:34:09;;;;;;;;;;;1.70;100.00;;;;;;5005698;28;19929;-64
2024/01/20 03:36:35;;;;;;;;;;;1.70;100.00;;;;;;5000906;28;19952;-65
2024/01/20 03:39:02;;;;;;;;;;;1.70;100.00;;;;;;5006509;28;20370;-64
2024/01/20 03:41:30;;;;;;;;;;;1.60;100.00;;;;;;5006330;28;19934;-64
2024/01/20 03:43:57;;;;;;;;;;;1.60;100.00;;;;;;5021619;28;19936;-64
2024/01/20 03:46:23;;;;;;;;;;;1.60;100.00;;;;;;5006121;28;19929;-64
2024/01/20 03:48:50;;;;;;;;;;;1.50;100.00;;;;;;5007596;28;19930;-64
2024/01/20 03:51:17;;;;;;;;;;;1.50;100.00;;;;;;5004134;28;20049;-64
2024/01/20 03:53:44;;;;;;;;;;;1.50;100.00;;;;;;5006965;28;19934;-65
2024/01/20 03:56:11;;;;;;;;;;;1.50;100.00;;;;;;5005812;28;19930;-65
2024/01/20 03:58:38;;;;;;;;;;;1.50;100.00;;;;;;5005035;28;20341;-64
2024/01/20 04:01:04;;;;;;;;;;;1.50;100.00;;;;;;5004561;28;20546;-64
2024/01/20 04:03:31;;;;;;;;;;;1.50;100.00;;;;;;5006922;28;20020;-65
2024/01/20 04:05:58;;;;;;;;;;;1.50;100.00;;;;;;5005624;28;19929;-64
2024/01/20 04:08:25;;;;;;;;;;;1.50;100.00;;;;;;5003765;28;19929;-65
2024/01/20 04:10:52;;;;;;;;;;;1.50;100.00;;;;;;5004472;28;19929;-64
2024/01/20 04:13:19;;;;;;;;;;;1.50;100.00;;;;;;5006254;28;19934;-65
2024/01/20 04:15:46;;;;;;;;;;;1.40;100.00;;;;;;4983583;28;19933;-65
2024/01/20 04:18:12;;;;;;;;;;;1.40;100.00;;;;;;5018390;28;19987;-65
2024/01/20 04:20:40;;;;;;;;;;;1.30;100.00;;;;;;5005279;28;20016;-65
2024/01/20 04:23:06;;;;;;;;;;;1.30;100.00;;;;;;5005238;28;19983;-64
2024/01/20 04:25:33;;;;;;;;;;;1.30;100.00;;;;;;5001755;28;20051;-65
2024/01/20 04:28:00;;;;;;;;;;;1.30;100.00;;;;;;5019320;28;20360;-65
2024/01/20 04:30:27;;;;;;;;;;;1.30;100.00;;;;;;5005093;28;19988;-65
2024/01/20 04:32:54;;;;;;;;;;;1.30;100.00;;;;;;5005624;28;19961;-64
2024/01/20 04:35:21;;;;;;;;;;;1.20;100.00;;;;;;5004645;28;19936;-65
2024/01/20 04:37:48;;;;;;;;;;;1.30;100.00;;;;;;5004312;28;19937;-65
2024/01/20 04:40:14;;;;;;;;;;;1.30;100.00;;;;;;5005353;28;19929;-65
2024/01/20 04:42:41;;;;;;;;;;;1.30;100.00;;;;;;5005995;28;19930;-65
2024/01/20 04:45:08;;;;;;;;;;;1.30;100.00;;;;;;5003108;28;20702;-64
2024/01/20 04:47:35;;;;;;;;;;;1.30;100.00;;;;;;5006107;28;19957;-64
2024/01/20 04:50:02;;;;;;;;;;;1.40;100.00;;;;;;5003867;28;19973;-64
2024/01/20 04:52:29;;;;;;;;;;;1.40;100.00;;;;;;5006141;28;19992;-68
2024/01/20 04:54:55;;;;;;;;;;;1.40;100.00;;;;;;5003412;28;20003;-68
2024/01/20 04:57:22;;;;;;;;;;;1.40;100.00;;;;;;5005669;28;19976;-68
2024/01/20 04:59:49;;;;;;;;;;;1.40;100.00;;;;;;5004011;28;20012;-68
2024/01/20 05:02:16;;;;;;;;;;;1.30;100.00;;;;;;5004933;28;20519;-68
2024/01/20 05:04:42;;;;;;;;;;;1.30;100.00;;;;;;5004457;28;19930;-69
2024/01/20 05:07:09;;;;;;;;;;;1.30;100.00;;;;;;5005302;28;20289;-68
2024/01/20 05:09:36;;;;;;;;;;;1.30;100.00;;;;;;5005214;28;19929;-69
2024/01/20 05:12:03;;;;;;;;;;;1.30;100.00;;;;;;5005466;28;19929;-69
2024/01/20 05:14:30;;;;;;;;;;;1.40;100.00;;;;;;5003685;28;19941;-68
2024/01/20 05:16:57;;;;;;;;;;;1.30;100.00;;;;;;5001484;28;19925;-68
2024/01/20 05:19:24;;;;;;;;;;;1.40;100.00;;;;;;5003158;28;20616;-68
2024/01/20 05:21:51;;;;;;;;;;;1.40;100.00;;;;;;5018497;28;20036;-69
2024/01/20 05:24:17;;;;;;;;;;;1.40;100.00;;;;;;5004360;28;19961;-69
2024/01/20 05:26:44;;;;;;;;;;;1.40;100.00;;;;;;5002920;28;19929;-68
2024/01/20 05:29:11;;;;;;;;;;;1.40;100.00;;;;;;5002760;28;20965;-68
2024/01/20 05:31:38;;;;;;;;;;;1.40;100.00;;;;;;5003092;28;19976;-68
2024/01/20 05:34:04;;;;;;;;;;;1.30;100.00;;;;;;5018933;28;19937;-68
2024/01/20 05:36:31;;;;;;;;;;;1.40;100.00;;;;;;5002461;28;20541;-69
2024/01/20 05:38:58;;;;;;;;;;;1.40;100.00;;;;;;5001219;28;19931;-68
2024/01/20 05:41:25;;;;;;;;;;;1.40;100.00;;;;;;4999992;28;19973;-68
2024/01/20 05:43:52;;;;;;;;;;;1.40;100.00;;;;;;5004225;28;19972;-67
2024/01/20 05:46:19;;;;;;;;;;;1.30;100.00;;;;;;5004246;28;20129;-67
2024/01/20 05:48:46;;;;;;;;;;;1.40;100.00;;;;;;5003121;28;19961;-67
2024/01/20 05:51:13;;;;;;;;;;;1.30;100.00;;;;;;5000347;28;19933;-67
2024/01/20 05:53:40;;;;;;;;;;;1.30;100.00;;;;;;5001739;28;20425;-68
2024/01/20 05:56:07;;;;;;;;;;;1.40;100.00;;;;;;5000698;28;20015;-67
2024/01/20 05:58:33;;;;;;;;;;;1.40;100.00;;;;;;4998385;28;19934;-68
2024/01/20 06:01:00;;;;;;;;;;;1.40;100.00;;;;;;5001628;28;19934;-68
2024/01/20 06:03:27;;;;;;;;;;;1.40;100.00;;;;;;4998285;28;20665;-68
2024/01/20 06:05:54;;;;;;;;;;;1.40;100.00;;;;;;4997905;28;20689;-67
2024/01/20 06:08:21;;;;;;;;;;;1.30;100.00;;;;;;5002784;28;19933;-68
2024/01/20 06:10:48;;;;;;;;;;;1.30;100.00;;;;;;4991436;28;19934;-67
2024/01/20 06:13:15;;;;;;;;;;;1.30;100.00;;;;;;4996760;28;20016;-67
2024/01/20 06:15:42;;;;;;;;;;;1.30;100.00;;;;;;5004091;28;20374;-68
2024/01/20 06:18:09;;;;;;;;;;;1.30;100.00;;;;;;5008533;28;20030;-68
2024/01/20 06:20:36;;;;;;;;;;;1.30;100.00;;;;;;4984839;28;20779;-68
2024/01/20 06:23:03;;;;;;;;;;;1.30;100.00;;;;;;5002610;28;20023;-67
2024/01/20 06:25:29;;;;;;;;;;;1.30;100.00;;;;;;5000601;28;20406;-67
2024/01/20 06:27:56;;;;;;;;;;;1.20;100.00;;;;;;5000798;28;20402;-67
2024/01/20 06:30:23;;;;;;;;;;;1.20;100.00;;;;;;4999925;28;20037;-68
2024/01/20 06:32:50;;;;;;;;;;;1.20;100.00;;;;;;5001212;28;19976;-71
2024/01/20 06:35:18;;;;;;;;;;;1.20;100.00;;;;;;4988117;28;19932;-65
2024/01/20 06:37:45;;;;;;;;;;;1.20;100.00;;;;;;4999013;28;19936;-65
2024/01/20 06:40:12;;;;;;;;;;;1.20;100.00;;;;;;4997956;28;20325;-65
2024/01/20 06:42:39;;;;;;;;;;;1.20;100.00;;;;;;5001350;28;19930;-66
2024/01/20 06:45:06;;;;;;;;;;;1.20;100.00;;;;;;5000765;28;20582;-65
2024/01/20 06:47:33;;;;;;;;;;;1.20;100.00;;;;;;4997901;28;19929;-65
2024/01/20 06:50:00;;;;;;;;;;;1.20;100.00;;;;;;5004863;28;19934;-64
2024/01/20 06:52:29;;;;;;;;;;;1.20;100.00;;;;;;4995016;28;19929;-65
2024/01/20 06:54:56;;;;;;;;;;;1.20;100.00;;;;;;5005565;28;19930;-68
2024/01/20 06:57:35;;;;;;;;;;;1.20;100.00;;;;;;5005258;28;19933;-68
2024/01/20 07:00:03;;;;;;;;;;;1.20;100.00;;;;;;4991208;22;19974;-68
2024/01/20 07:02:33;;;;;;;;;;;1.20;100.00;;;;;;5020657;28;20019;-68
2024/01/20 07:05:00;;;;;;;;;;;1.20;100.00;;;;;;5019489;28;20079;-69
2024/01/20 07:07:29;;;;;;;;;;;1.20;100.00;;;;;;5023400;28;19929;-68
2024/01/20 07:09:57;;;;;;;;;;;1.20;100.00;;;;;;5024294;28;19929;-69
2024/01/20 07:12:24;;;;;;;;;;;1.20;100.00;;;;;;5022906;28;19936;-69
2024/01/20 07:14:52;;;;;;;;;;;1.20;100.00;;;;;;5024673;28;19932;-68
2024/01/20 07:17:19;;;;;;;;;;;1.20;100.00;;;;;;5021434;28;19933;-68
2024/01/20 07:19:46;;;;;;;;;;;1.20;100.00;;;;;;5028442;28;20061;-69
2024/01/20 07:22:13;;;;;;;;;;;1.30;100.00;;;;;;5028353;28;20045;-68
2024/01/20 07:24:39;;;;;;;;;;;1.30;100.00;;;;;;5020231;28;20090;-68
2024/01/20 07:27:06;;;;;;;;;;;1.30;100.00;;;;;;5022580;28;19929;-68
2024/01/20 07:29:33;;;;;;;;;;;1.30;100.00;;;;;;5021702;28;19932;-68
2024/01/20 07:32:00;;;;;;;;;;;1.30;100.00;;;;;;5022637;28;19964;-65
2024/01/20 07:34:26;;;;;;;;;;;1.30;100.00;;;;;;5016135;28;20356;-64
2024/01/20 07:36:53;;;;;;;;;;;1.40;100.00;;;;;;5021586;28;20630;-64
2024/01/20 07:39:20;;;;;;;;;;;1.40;100.00;;;;;;5018063;28;19929;-64
2024/01/20 07:41:47;;;;;;;;;;;1.40;100.00;;;;;;5022906;28;19936;-64
2024/01/20 07:44:14;;;;;;;;;;;1.40;100.00;;;;;;5022235;28;19991;-64
2024/01/20 07:46:41;;;;;;;;;;;1.40;100.00;;;;;;5021451;28;19929;-64
2024/01/20 07:49:08;;;;;;;;;;;1.50;100.00;;;;;;5022953;28;19932;-64
2024/01/20 07:51:35;;;;;;;;;;;1.50;100.00;;;;;;5024771;28;19936;-64
2024/01/20 07:54:02;;;;;;;;;;;1.60;100.00;;;;;;5023683;28;19933;-64
2024/01/20 07:56:29;;;;;;;;;;;1.60;100.00;;;;;;5024199;28;20582;-64
2024/01/20 07:58:55;;;;;;;;;;;1.70;100.00;;;;;;5023492;28;19932;-64
2024/01/20 08:01:22;;;;;;;;;;;1.70;100.00;;;;;;5023112;28;20503;-65
2024/01/20 08:03:49;;;;;;;;;;;1.70;100.00;;;;;;5024846;28;19929;-64
2024/01/20 08:06:16;;;;;;;;;;;1.80;100.00;;;;;;5023379;28;20043;-64
2024/01/20 08:08:44;;;;;;;;;;;1.80;100.00;;;;;;5021989;28;19987;-65
2024/01/20 08:11:12;;;;;;;;;;;1.80;100.00;;;;;;5022506;28;20314;-64
2024/01/20 08:13:38;;;;;;;;;;;1.80;100.00;;;;;;5022171;28;19968;-64
2024/01/20 08:16:06;;;;;;;;;;;1.80;100.00;;;;;;5020403;28;20003;-64
2024/01/20 08:18:33;;;;;;;;;;;1.80;100.00;;;;;;5023790;28;19925;-64
2024/01/20 08:21:04;;;;;;;;;;;1.80;100.00;;;;;;5023406;28;19929;-64
2024/01/20 08:23:30;;;;;;;;;;;1.80;100.00;;;;;;5029194;28;20529;-64
2024/01/20 08:25:58;;;;;;;;;;;1.80;100.00;;;;;;5020292;28;20611;-64
2024/01/20 08:28:25;;;;;;;;;;;1.80;100.00;;;;;;5024486;28;19979;-64
2024/01/20 08:30:51;;;;;;;;;;;1.80;100.00;;;;;;5029288;28;20867;-64
2024/01/20 08:33:18;;;;;;;;;;;1.80;100.00;;;;;;5022018;28;20036;-64
2024/01/20 08:35:45;;;;;;;;;;;1.70;100.00;;;;;;5023603;28;19933;-64
2024/01/20 08:38:12;;;;;;;;;;;1.70;100.00;;;;;;5022932;28;19987;-64
2024/01/20 08:40:39;;;;;;;;;;;1.70;100.00;;;;;;5024345;28;20387;-64
2024/01/20 08:43:05;;;;;;;;;;;1.70;100.00;;;;;;5022374;28;19976;-63
2024/01/20 08:45:32;;;;;;;;;;;1.70;100.00;;;;;;5024006;28;20393;-63
2024/01/20 08:47:59;;;;;;;;;;;1.60;100.00;;;;;;5023755;28;19936;-64
2024/01/20 08:50:26;;;;;;;;;;;1.70;100.00;;;;;;5022860;28;20023;-64
2024/01/20 08:52:53;;;;;;;;;;;1.80;100.00;;;;;;5024973;28;19925;-64
2024/01/20 08:55:20;;;;;;;;;;;1.90;100.00;;;;;;5025777;28;19936;-68
2024/01/20 08:57:46;;;;;;;;;;;1.90;100.00;;;;;;5024613;28;19929;-69
2024/01/20 09:00:16;;;;;;;;;;;2.00;100.00;;;;;;5021517;28;19929;-68
2024/01/20 09:02:43;;;;;;;;;;;2.00;100.00;;;;;;5029448;28;20001;-69
2024/01/20 09:05:11;;;;;;;;;;;2.00;100.00;;;;;;5022362;28;19944;-68
2024/01/20 09:07:38;;;;;;;;;;;1.90;100.00;;;;;;5023019;28;19932;-68
2024/01/20 09:10:06;;;;;;;;;;;2.00;100.00;;;;;;5028951;28;19929;-69
2024/01/20 09:12:33;;;;;;;;;;;1.90;100.00;;;;;;5022634;28;19932;-70
2024/01/20 09:15:00;;;;;;;;;;;2.00;100.00;;;;;;5021468;28;19983;-64
2024/01/20 09:17:27;;;;;;;;;;;2.00;100.00;;;;;;5022812;28;19925;-64
2024/01/20 09:19:54;;;;;;;;;;;2.00;100.00;;;;;;5022696;28;19934;-65
2024/01/20 09:22:21;;;;;;;;;;;2.10;100.00;;;;;;5031151;28;20011;-65
2024/01/20 09:24:48;;;;;;;;;;;2.10;100.00;;;;;;5022580;28;19983;-65
2024/01/20 09:27:16;;;;;;;;;;;2.20;100.00;;;;;;5021553;28;20046;-65
2024/01/20 09:29:43;;;;;;;;;;;2.20;100.00;;;;;;5022839;28;19925;-65
2024/01/20 09:32:10;;;;;;;;;;;2.20;100.00;;;;;;5023136;28;20698;-64
2024/01/20 09:34:37;;;;;;;;;;;2.30;100.00;;;;;;5023080;28;20018;-70
2024/01/20 09:37:03;;;;;;;;;;;2.20;100.00;;;;;;5022459;28;20003;-69
2024/01/20 09:39:31;;;;;;;;;;;2.20;100.00;;;;;;5022109;28;19980;-68
2024/01/20 09:41:59;;;;;;;;;;;2.00;100.00;;;;;;5021363;28;19933;-69
2024/01/20 09:44:26;;;;;;;;;;;2.10;100.00;;;;;;5021839;28;19929;-68
2024/01/20 09:46:52;;;;;;;;;;;2.10;100.00;;;;;;5022232;28;19976;-68
2024/01/20 09:49:19;;;;;;;;;;;2.20;100.00;;;;;;5017880;28;19929;-68
2024/01/20 09:51:51;;;;;;;;;;;2.20;100.00;;;;;;5021804;28;20006;-68
2024/01/20 09:54:18;;;;;;;;;;;2.30;100.00;;;;;;5022314;28;19933;-68
2024/01/20 09:56:45;;;;;;;;;;;2.30;100.00;;;;;;5019521;28;19940;-69
2024/01/20 09:59:13;;;;;;;;;;;2.40;100.00;;;;;;5021259;28;20511;-65
2024/01/20 10:01:41;;;;;;;;;;;2.40;100.00;;;;;;5019185;28;19936;-65
2024/01/20 10:04:08;;;;;;;;;;;2.70;100.00;;;;;;5019242;28;19929;-64
2024/01/20 10:06:35;;;;;;;;;;;2.90;100.00;;;;;;5021223;28;19936;-64
2024/01/20 10:09:03;;;;;;;;;;;3.00;100.00;;;;;;5018712;28;19929;-64
2024/01/20 10:11:30;;;;;;;;;;;3.00;100.00;;;;;;5018580;28;19929;-64
2024/01/20 10:13:57;;;;;;;;;;;3.10;100.00;;;;;;5018161;28;19937;-64
2024/01/20 10:16:24;;;;;;;;;;;3.10;100.00;;;;;;5014618;28;19940;-63
2024/01/20 10:18:51;;;;;;;;;;;3.10;100.00;;;;;;5018334;28;20011;-63
2024/01/20 10:21:19;;;;;;;;;;;3.00;100.00;;;;;;5019790;28;19925;-63
2024/01/20 10:23:46;;;;;;;;;;;3.10;100.00;;;;;;5019222;28;19933;-63
2024/01/20 10:26:13;;;;;;;;;;;3.20;100.00;;;;;;5019571;28;19929;-64
2024/01/20 10:28:40;;;;;;;;;;;3.40;100.00;;;;;;5018785;28;19999;-63
2024/01/20 10:31:08;;;;;;;;;;;3.20;100.00;;;;;;5018114;28;19961;-63
2024/01/20 10:33:35;;;;;;;;;;;3.20;100.00;;;;;;5019336;28;19933;-66
2024/01/20 10:36:06;;;;;;;;;;;3.20;100.00;;;;;;5019330;28;19957;-67
2024/01/20 10:38:36;;;;;;;;;;;3.40;100.00;;;;;;5019806;28;19939;-67
2024/01/20 10:41:04;;;;;;;;;;;3.50;100.00;;;;;;5019735;28;20011;-67
2024/01/20 10:43:36;;;;;;;;;;;3.60;100.00;;;;;;5018636;28;19929;-66
2024/01/20 10:46:24;;;;;;;;;;;3.50;100.00;;;;;;5019481;28;19929;-67
2024/01/20 10:48:52;;;;;;;;;;;3.30;100.00;;;;;;5019140;28;20055;-67
2024/01/20 10:51:25;;;;;;;;;;;3.20;100.00;;;;;;5021935;28;19929;-66
2024/01/20 10:53:53;;;;;;;;;;;3.20;100.00;;;;;;5019725;28;19929;-67
2024/01/20 10:56:20;;;;;;;;;;;3.30;100.00;;;;;;5018269;28;20330;-66
2024/01/20 10:58:50;;;;;;;;;;;3.50;100.00;;;;;;5001067;28;20873;-66
2024/01/20 11:01:17;;;;;;;;;;;3.40;100.00;;;;;;5016211;28;20036;-67
2024/01/20 11:03:44;;;;;;;;;;;3.40;100.00;;;;;;5018752;28;19940;-66
2024/01/20 11:06:20;;;;;;;;;;;3.30;100.00;;;;;;5016835;28;20460;-66
2024/01/20 11:08:52;;;;;;;;;;;3.50;100.00;;;;;;5019500;28;19933;-66
2024/01/20 11:11:19;;;;;;;;;;;3.60;100.00;;;;;;5019553;28;19933;-66
2024/01/20 11:13:47;;;;;;;;;;;3.80;100.00;;;;;;5019736;28;19999;-66
2024/01/20 11:16:18;;;;;;;;;;;3.70;100.00;;;;;;5018682;28;20003;-67
2024/01/20 11:18:45;;;;;;;;;;;3.80;100.00;;;;;;5018063;28;19964;-67
2024/01/20 11:21:15;;;;;;;;;;;3.80;100.00;;;;;;5019068;28;19929;-67
2024/01/20 11:23:57;;;;;;;;;;;3.80;100.00;;;;;;5024453;28;19979;-68
2024/01/20 11:26:30;;;;;;;;;;;3.90;100.00;;;;;;5022364;28;20668;-63
2024/01/20 11:28:58;;;;;;;;;;;3.90;100.00;;;;;;5018898;28;20008;-62
2024/01/20 11:31:26;;;;;;;;;;;4.20;100.00;;;;;;5017300;28;19984;-63
2024/01/20 11:33:53;;;;;;;;;;;4.50;100.00;;;;;;5021527;28;19929;-63
2024/01/20 11:36:20;;;;;;;;;;;4.60;100.00;;;;;;5019132;28;20302;-63
2024/01/20 11:38:48;;;;;;;;;;;4.60;100.00;;;;;;5021115;28;19933;-63
2024/01/20 11:41:16;;;;;;;;;;;4.50;100.00;;;;;;5022238;28;20382;-63
2024/01/20 11:43:44;;;;;;;;;;;4.40;100.00;;;;;;5023687;28;20017;-63
2024/01/20 11:46:11;;;;;;;;;;;4.50;100.00;;;;;;5021378;28;19995;-63
2024/01/20 11:48:38;;;;;;;;;;;4.40;100.00;;;;;;5020782;28;20071;-62
2024/01/20 11:51:05;;;;;;;;;;;4.50;100.00;;;;;;5021854;28;19956;-62
2024/01/20 11:53:33;;;;;;;;;;;4.40;100.00;;;;;;5022211;28;19929;-63
2024/01/20 11:56:00;;;;;;;;;;;4.40;100.00;;;;;;5019820;28;19937;-63
2024/01/20 11:58:27;;;;;;;;;;;4.40;100.00;;;;;;5022675;28;20417;-64
2024/01/20 12:00:54;;;;;;;;;;;4.40;100.00;;;;;;5021202;28;20459;-63
2024/01/20 12:03:22;;;;;;;;;;;4.50;100.00;;;;;;5019094;28;20293;-63
2024/01/20 12:05:49;;;;;;;;;;;4.50;100.00;;;;;;5021538;28;20026;-63
2024/01/20 12:08:17;;;;;;;;;;;4.40;100.00;;;;;;5021089;28;19929;-63
2024/01/20 12:10:48;;;;;;;;;;;4.50;100.00;;;;;;5019025;28;19933;-63
2024/01/20 12:13:15;;;;;;;;;;;4.70;100.00;;;;;;5018743;28;19987;-63
2024/01/20 12:15:45;;;;;;;;;;;4.80;100.00;;;;;;5021110;28;19936;-65
2024/01/20 12:18:12;;;;;;;;;;;4.70;100.00;;;;;;5021393;28;19929;-64
2024/01/20 12:20:40;;;;;;;;;;;4.70;100.00;;;;;;5020663;28;20010;-63
2024/01/20 12:23:07;;;;;;;;;;;4.60;100.00;;;;;;5021967;28;19956;-63
2024/01/20 12:25:34;;;;;;;;;;;4.70;100.00;;;;;;5022004;28;20479;-63
2024/01/20 12:28:01;;;;;;;;;;;4.90;100.00;;;;;;5019544;28;20443;-63
2024/01/20 12:30:31;;;;;;;;;;;4.80;100.00;;;;;;5021772;28;20016;-63
2024/01/20 12:32:58;;;;;;;;;;;4.60;100.00;;;;;;5020732;28;19935;-63
2024/01/20 12:35:25;;;;;;;;;;;4.60;100.00;;;;;;5021994;28;20457;-63
2024/01/20 12:37:52;;;;;;;;;;;4.40;100.00;;;;;;5022761;28;20321;-63
2024/01/20 12:40:19;;;;;;;;;;;4.40;100.00;;;;;;5020376;28;19995;-63
2024/01/20 12:42:46;;;;;;;;;;;4.40;100.00;;;;;;5019293;28;19933;-63
2024/01/20 12:45:13;;;;;;;;;;;4.50;100.00;;;;;;5018294;28;19925;-63
2024/01/20 12:47:39;;;;;;;;;;;4.50;100.00;;;;;;5020509;28;19999;-63
2024/01/20 12:50:06;;;;;;;;;;;4.30;100.00;;;;;;5022284;28;20285;-63
2024/01/20 12:52:34;;;;;;;;;;;4.30;100.00;;;;;;5020462;28;19935;-63
2024/01/20 12:55:00;;;;;;;;;;;4.20;100.00;;;;;;5019931;28;19940;-63
2024/01/20 12:57:27;;;;;;;;;;;4.20;100.00;;;;;;5014770;28;20546;-63
2024/01/20 12:59:56;;;;;;;;;;;4.20;100.00;;;;;;5020769;28;20468;-63
2024/01/20 13:02:23;;;;;;;;;;;4.30;100.00;;;;;;5023361;28;19933;-62
2024/01/20 13:04:49;;;;;;;;;;;4.40;100.00;;;;;;5024004;28;19929;-62
2024/01/20 13:07:18;;;;;;;;;;;4.60;100.00;;;;;;5022074;28;19940;-62
2024/01/20 13:09:45;;;;;;;;;;;4.70;100.00;;;;;;5023234;28;19956;-62
2024/01/20 13:12:12;;;;;;;;;;;4.70;100.00;;;;;;5023427;28;19991;-62
2024/01/20 13:14:41;;;;;;;;;;;4.90;100.00;;;;;;5023821;28;20011;-62
2024/01/20 13:17:08;;;;;;;;;;;4.70;100.00;;;;;;5023158;28;19960;-63
2024/01/20 13:19:35;;;;;;;;;;;4.60;100.00;;;;;;5023724;28;19991;-63
2024/01/20 13:22:03;;;;;;;;;;;4.50;100.00;;;;;;5023202;28;19929;-63
2024/01/20 13:24:30;;;;;;;;;;;4.60;100.00;;;;;;5022804;28;19934;-63
2024/01/20 13:26:57;;;;;;;;;;;4.50;100.00;;;;;;5023115;28;20377;-63
2024/01/20 13:29:23;;;;;;;;;;;4.40;100.00;;;;;;5022904;28;19979;-63
2024/01/20 13:31:50;;;;;;;;;;;4.50;100.00;;;;;;5024334;28;20031;-63
2024/01/20 13:34:17;;;;;;;;;;;4.40;100.00;;;;;;5022527;28;19968;-63
2024/01/20 13:36:44;;;;;;;;;;;4.20;100.00;;;;;;5021790;28;20444;-63
2024/01/20 13:39:11;;;;;;;;;;;4.10;100.00;;;;;;5023099;28;19939;-63
2024/01/20 13:41:38;;;;;;;;;;;4.10;100.00;;;;;;5022222;28;19925;-63
2024/01/20 13:44:04;;;;;;;;;;;4.00;100.00;;;;;;5021691;28;19974;-63
2024/01/20 13:46:31;;;;;;;;;;;4.30;100.00;;;;;;5020248;28;19929;-63
2024/01/20 13:48:58;;;;;;;;;;;4.70;100.00;;;;;;5020025;28;20018;-63
2024/01/20 13:51:31;;;;;;;;;;;4.90;100.00;;;;;;5023946;28;20044;-62
2024/01/20 13:53:59;;;;;;;;;;;4.90;100.00;;;;;;5020379;28;20040;-63
2024/01/20 13:56:27;;;;;;;;;;;4.70;100.00;;;;;;5021052;28;19937;-63
2024/01/20 13:58:55;;;;;;;;;;;4.70;100.00;;;;;;5022268;28;20022;-63
2024/01/20 14:01:22;;;;;;;;;;;4.60;100.00;;;;;;5022627;28;19994;-63
2024/01/20 14:03:49;;;;;;;;;;;4.50;100.00;;;;;;5020962;28;19929;-63
2024/01/20 14:06:16;;;;;;;;;;;4.40;100.00;;;;;;5022512;28;19957;-63
2024/01/20 14:08:44;;;;;;;;;;;4.30;100.00;;;;;;5022765;28;19933;-63
2024/01/20 14:11:10;;;;;;;;;;;4.20;100.00;;;;;;5021910;28;19929;-63
2024/01/20 14:13:37;;;;;;;;;;;4.20;100.00;;;;;;5022482;28;20336;-63
2024/01/20 14:16:04;;;;;;;;;;;4.20;100.00;;;;;;5015642;28;20027;-63